sensor_id;sensor_type;location;lat;lon;timestamp;temperature;humidity
66035;HTU21D;52805;51.074;5.842;2023-05-07T00:02:06;15.41;118.99
66035;HTU21D;52805;51.074;5.842;2023-05-07T00:04:32;15.41;118.99
66035;HTU21D;52805;51.074;5.842;2023-05-07T00:07:02;15.39;118.99
66035;HTU21D;52805;51.074;5.842;2023-05-07T00:09:28;15.37;118.99
66035;HTU21D;52805;51.074;5.842;2023-05-07T00:11:54;15.36;118.99
66035;HTU21D;52805;51.074;5.842;2023-05-07T00:14:19;15.37;118.99
66035;HTU21D;52805;51.074;5.842;2023-05-07T00:16:45;15.36;118.99
66035;HTU21D;52805;51.074;5.842;2023-05-07T00:19:11;15.37;118.99
66035;HTU21D;52805;51.074;5.842;2023-05-07T00:21:37;15.38;118.99
66035;HTU21D;52805;51.074;5.842;2023-05-07T00:24:02;15.38;118.99
66035;HTU21D;52805;51.074;5.842;2023-05-07T00:26:28;15.40;118.99
66035;HTU21D;52805;51.074;5.842;2023-05-07T00:28:54;15.41;118.99
66035;HTU21D;52805;51.074;5.842;2023-05-07T00:31:20;15.40;118.99
66035;HTU21D;52805;51.074;5.842;2023-05-07T00:33:46;15.41;118.99
66035;HTU21D;52805;51.074;5.842;2023-05-07T00:36:12;15.43;118.99
66035;HTU21D;52805;51.074;5.842;2023-05-07T00:38:38;15.44;118.99
66035;HTU21D;52805;51.074;5.842;2023-05-07T00:41:03;15.44;118.99
66035;HTU21D;52805;51.074;5.842;2023-05-07T00:43:29;15.45;118.99
66035;HTU21D;52805;51.074;5.842;2023-05-07T00:45:55;15.43;118.99
66035;HTU21D;52805;51.074;5.842;2023-05-07T00:48:21;15.41;118.99
66035;HTU21D;52805;51.074;5.842;2023-05-07T00:50:47;15.38;118.99
66035;HTU21D;52805;51.074;5.842;2023-05-07T00:53:14;15.34;118.99
66035;HTU21D;52805;51.074;5.842;2023-05-07T00:55:40;15.33;118.99
66035;HTU21D;52805;51.074;5.842;2023-05-07T00:58:06;15.37;118.99
66035;HTU21D;52805;51.074;5.842;2023-05-07T01:00:32;15.37;118.99
66035;HTU21D;52805;51.074;5.842;2023-05-07T01:02:58;15.39;118.99
66035;HTU21D;52805;51.074;5.842;2023-05-07T01:05:25;15.38;118.99
66035;HTU21D;52805;51.074;5.842;2023-05-07T01:07:53;15.40;118.99
66035;HTU21D;52805;51.074;5.842;2023-05-07T01:10:21;15.40;118.99
66035;HTU21D;52805;51.074;5.842;2023-05-07T01:12:49;15.37;118.99
66035;HTU21D;52805;51.074;5.842;2023-05-07T01:15:16;15.36;118.99
66035;HTU21D;52805;51.074;5.842;2023-05-07T01:17:43;15.31;118.99
66035;HTU21D;52805;51.074;5.842;2023-05-07T01:20:17;15.31;118.99
66035;HTU21D;52805;51.074;5.842;2023-05-07T01:22:45;15.28;118.99
66035;HTU21D;52805;51.074;5.842;2023-05-07T01:25:12;15.27;118.99
66035;HTU21D;52805;51.074;5.842;2023-05-07T01:27:43;15.24;118.99
66035;HTU21D;52805;51.074;5.842;2023-05-07T01:30:10;15.24;118.99
66035;HTU21D;52805;51.074;5.842;2023-05-07T01:32:43;15.23;118.99
66035;HTU21D;52805;51.074;5.842;2023-05-07T01:35:16;15.22;118.99
66035;HTU21D;52805;51.074;5.842;2023-05-07T01:37:46;15.21;118.99
66035;HTU21D;52805;51.074;5.842;2023-05-07T01:40:13;15.17;118.99
66035;HTU21D;52805;51.074;5.842;2023-05-07T01:42:41;15.15;118.99
66035;HTU21D;52805;51.074;5.842;2023-05-07T01:45:08;15.13;118.99
66035;HTU21D;52805;51.074;5.842;2023-05-07T01:47:36;15.10;118.99
66035;HTU21D;52805;51.074;5.842;2023-05-07T01:50:02;15.09;118.99
66035;HTU21D;52805;51.074;5.842;2023-05-07T01:52:28;15.06;118.99
66035;HTU21D;52805;51.074;5.842;2023-05-07T01:54:54;15.01;118.99
66035;HTU21D;52805;51.074;5.842;2023-05-07T01:57:20;14.98;118.99
66035;HTU21D;52805;51.074;5.842;2023-05-07T01:59:46;14.97;118.99
66035;HTU21D;52805;51.074;5.842;2023-05-07T02:02:11;14.94;118.99
66035;HTU21D;52805;51.074;5.842;2023-05-07T02:04:40;14.94;118.99
66035;HTU21D;52805;51.074;5.842;2023-05-07T02:07:05;14.89;118.99
66035;HTU21D;52805;51.074;5.842;2023-05-07T02:09:31;14.89;118.99
66035;HTU21D;52805;51.074;5.842;2023-05-07T02:11:57;14.88;118.99
66035;HTU21D;52805;51.074;5.842;2023-05-07T02:14:23;14.88;118.99
66035;HTU21D;52805;51.074;5.842;2023-05-07T02:16:49;14.85;118.99
66035;HTU21D;52805;51.074;5.842;2023-05-07T02:19:15;14.83;118.99
66035;HTU21D;52805;51.074;5.842;2023-05-07T02:21:41;14.82;118.99
66035;HTU21D;52805;51.074;5.842;2023-05-07T02:24:07;14.82;118.99
66035;HTU21D;52805;51.074;5.842;2023-05-07T02:26:32;14.81;118.99
66035;HTU21D;52805;51.074;5.842;2023-05-07T02:28:59;14.80;118.99
66035;HTU21D;52805;51.074;5.842;2023-05-07T02:31:25;14.77;118.99
66035;HTU21D;52805;51.074;5.842;2023-05-07T02:33:51;14.71;118.99
66035;HTU21D;52805;51.074;5.842;2023-05-07T02:36:17;14.70;118.99
66035;HTU21D;52805;51.074;5.842;2023-05-07T02:38:49;14.72;118.99
66035;HTU21D;52805;51.074;5.842;2023-05-07T02:41:15;14.74;118.99
66035;HTU21D;52805;51.074;5.842;2023-05-07T02:43:41;14.74;118.99
66035;HTU21D;52805;51.074;5.842;2023-05-07T02:46:08;14.74;118.99
66035;HTU21D;52805;51.074;5.842;2023-05-07T02:48:39;14.77;118.99
66035;HTU21D;52805;51.074;5.842;2023-05-07T02:51:05;14.78;118.99
66035;HTU21D;52805;51.074;5.842;2023-05-07T02:53:32;14.75;118.99
66035;HTU21D;52805;51.074;5.842;2023-05-07T02:55:59;14.77;118.99
66035;HTU21D;52805;51.074;5.842;2023-05-07T02:58:25;14.78;118.99
66035;HTU21D;52805;51.074;5.842;2023-05-07T03:00:52;14.77;118.99
66035;HTU21D;52805;51.074;5.842;2023-05-07T03:03:32;14.74;118.99
66035;HTU21D;52805;51.074;5.842;2023-05-07T03:05:58;14.73;118.99
66035;HTU21D;52805;51.074;5.842;2023-05-07T03:08:24;14.71;118.99
66035;HTU21D;52805;51.074;5.842;2023-05-07T03:10:49;14.70;118.99
66035;HTU21D;52805;51.074;5.842;2023-05-07T03:13:15;14.68;118.99
66035;HTU21D;52805;51.074;5.842;2023-05-07T03:15:41;14.68;118.99
66035;HTU21D;52805;51.074;5.842;2023-05-07T03:18:07;14.68;118.99
66035;HTU21D;52805;51.074;5.842;2023-05-07T03:20:33;14.68;118.99
66035;HTU21D;52805;51.074;5.842;2023-05-07T03:22:58;14.69;118.99
66035;HTU21D;52805;51.074;5.842;2023-05-07T03:25:24;14.69;118.99
66035;HTU21D;52805;51.074;5.842;2023-05-07T03:27:50;14.71;118.99
66035;HTU21D;52805;51.074;5.842;2023-05-07T03:30:19;14.69;118.99
66035;HTU21D;52805;51.074;5.842;2023-05-07T03:32:45;14.69;118.99
66035;HTU21D;52805;51.074;5.842;2023-05-07T03:35:11;14.67;118.99
66035;HTU21D;52805;51.074;5.842;2023-05-07T03:37:38;14.68;118.99
66035;HTU21D;52805;51.074;5.842;2023-05-07T03:40:05;14.66;118.99
66035;HTU21D;52805;51.074;5.842;2023-05-07T03:42:40;14.66;118.99
66035;HTU21D;52805;51.074;5.842;2023-05-07T03:45:06;14.64;118.99
66035;HTU21D;52805;51.074;5.842;2023-05-07T03:47:33;14.60;118.99
66035;HTU21D;52805;51.074;5.842;2023-05-07T03:49:58;14.58;118.99
66035;HTU21D;52805;51.074;5.842;2023-05-07T03:52:24;14.55;118.99
66035;HTU21D;52805;51.074;5.842;2023-05-07T03:54:53;14.52;118.99
66035;HTU21D;52805;51.074;5.842;2023-05-07T03:57:19;14.51;118.99
66035;HTU21D;52805;51.074;5.842;2023-05-07T03:59:45;14.50;118.99
66035;HTU21D;52805;51.074;5.842;2023-05-07T04:02:11;14.45;118.99
66035;HTU21D;52805;51.074;5.842;2023-05-07T04:04:37;14.42;118.99
66035;HTU21D;52805;51.074;5.842;2023-05-07T04:07:03;14.41;118.99
66035;HTU21D;52805;51.074;5.842;2023-05-07T04:09:30;14.41;118.99
66035;HTU21D;52805;51.074;5.842;2023-05-07T04:11:56;14.41;118.99
66035;HTU21D;52805;51.074;5.842;2023-05-07T04:14:22;14.39;118.99
66035;HTU21D;52805;51.074;5.842;2023-05-07T04:16:48;14.38;118.99
66035;HTU21D;52805;51.074;5.842;2023-05-07T04:19:14;14.39;118.99
66035;HTU21D;52805;51.074;5.842;2023-05-07T04:21:40;14.39;118.99
66035;HTU21D;52805;51.074;5.842;2023-05-07T04:24:06;14.41;118.99
66035;HTU21D;52805;51.074;5.842;2023-05-07T04:26:32;14.41;118.99
66035;HTU21D;52805;51.074;5.842;2023-05-07T04:28:58;14.41;118.99
66035;HTU21D;52805;51.074;5.842;2023-05-07T04:31:29;14.43;118.99
66035;HTU21D;52805;51.074;5.842;2023-05-07T04:33:55;14.48;118.99
66035;HTU21D;52805;51.074;5.842;2023-05-07T04:36:21;14.50;118.99
66035;HTU21D;52805;51.074;5.842;2023-05-07T04:38:56;14.56;118.99
66035;HTU21D;52805;51.074;5.842;2023-05-07T04:41:22;14.60;118.99
66035;HTU21D;52805;51.074;5.842;2023-05-07T04:43:48;14.64;118.99
66035;HTU21D;52805;51.074;5.842;2023-05-07T04:46:15;14.66;118.99
66035;HTU21D;52805;51.074;5.842;2023-05-07T04:48:42;14.69;118.99
66035;HTU21D;52805;51.074;5.842;2023-05-07T04:51:09;14.72;118.99
66035;HTU21D;52805;51.074;5.842;2023-05-07T04:53:34;14.75;118.99
66035;HTU21D;52805;51.074;5.842;2023-05-07T04:56:00;14.78;118.99
66035;HTU21D;52805;51.074;5.842;2023-05-07T04:58:32;14.82;118.99
66035;HTU21D;52805;51.074;5.842;2023-05-07T05:00:58;14.86;118.99
66035;HTU21D;52805;51.074;5.842;2023-05-07T05:03:24;14.88;118.99
66035;HTU21D;52805;51.074;5.842;2023-05-07T05:05:51;14.92;118.99
66035;HTU21D;52805;51.074;5.842;2023-05-07T05:08:17;14.93;118.99
66035;HTU21D;52805;51.074;5.842;2023-05-07T05:10:43;14.94;118.99
66035;HTU21D;52805;51.074;5.842;2023-05-07T05:13:10;14.97;118.99
66035;HTU21D;52805;51.074;5.842;2023-05-07T05:15:38;14.96;118.99
66035;HTU21D;52805;51.074;5.842;2023-05-07T05:18:04;14.97;118.99
66035;HTU21D;52805;51.074;5.842;2023-05-07T05:20:30;15.00;118.99
66035;HTU21D;52805;51.074;5.842;2023-05-07T05:22:56;15.02;118.99
66035;HTU21D;52805;51.074;5.842;2023-05-07T05:25:22;15.07;118.99
66035;HTU21D;52805;51.074;5.842;2023-05-07T05:27:47;15.13;118.99
66035;HTU21D;52805;51.074;5.842;2023-05-07T05:30:13;15.19;118.99
66035;HTU21D;52805;51.074;5.842;2023-05-07T05:32:39;15.27;118.99
66035;HTU21D;52805;51.074;5.842;2023-05-07T05:35:06;15.34;118.99
66035;HTU21D;52805;51.074;5.842;2023-05-07T05:37:32;15.41;118.99
66035;HTU21D;52805;51.074;5.842;2023-05-07T05:39:59;15.48;118.99
66035;HTU21D;52805;51.074;5.842;2023-05-07T05:42:26;15.54;118.99
66035;HTU21D;52805;51.074;5.842;2023-05-07T05:44:53;15.60;118.99
66035;HTU21D;52805;51.074;5.842;2023-05-07T05:47:18;15.63;118.99
66035;HTU21D;52805;51.074;5.842;2023-05-07T05:49:44;15.67;118.99
66035;HTU21D;52805;51.074;5.842;2023-05-07T05:52:13;15.69;118.99
66035;HTU21D;52805;51.074;5.842;2023-05-07T05:54:39;15.72;118.99
66035;HTU21D;52805;51.074;5.842;2023-05-07T05:57:05;15.73;118.99
66035;HTU21D;52805;51.074;5.842;2023-05-07T05:59:31;15.76;118.99
66035;HTU21D;52805;51.074;5.842;2023-05-07T06:01:57;15.81;118.99
66035;HTU21D;52805;51.074;5.842;2023-05-07T06:04:23;15.84;118.99
66035;HTU21D;52805;51.074;5.842;2023-05-07T06:06:49;15.88;118.99
66035;HTU21D;52805;51.074;5.842;2023-05-07T06:09:15;15.91;118.99
66035;HTU21D;52805;51.074;5.842;2023-05-07T06:11:43;15.93;118.99
66035;HTU21D;52805;51.074;5.842;2023-05-07T06:14:10;15.97;118.99
66035;HTU21D;52805;51.074;5.842;2023-05-07T06:16:36;16.00;118.99
66035;HTU21D;52805;51.074;5.842;2023-05-07T06:19:04;16.02;118.99
66035;HTU21D;52805;51.074;5.842;2023-05-07T06:21:30;16.07;118.99
66035;HTU21D;52805;51.074;5.842;2023-05-07T06:23:57;16.12;118.99
66035;HTU21D;52805;51.074;5.842;2023-05-07T06:26:23;16.19;118.99
66035;HTU21D;52805;51.074;5.842;2023-05-07T06:28:48;16.26;118.99
66035;HTU21D;52805;51.074;5.842;2023-05-07T06:31:18;16.32;118.99
66035;HTU21D;52805;51.074;5.842;2023-05-07T06:33:56;16.40;118.99
66035;HTU21D;52805;51.074;5.842;2023-05-07T06:36:26;16.48;118.99
66035;HTU21D;52805;51.074;5.842;2023-05-07T06:38:55;16.57;118.99
66035;HTU21D;52805;51.074;5.842;2023-05-07T06:41:20;16.65;118.99
66035;HTU21D;52805;51.074;5.842;2023-05-07T06:43:46;16.76;118.99
66035;HTU21D;52805;51.074;5.842;2023-05-07T06:46:25;16.81;118.99
66035;HTU21D;52805;51.074;5.842;2023-05-07T06:48:51;16.87;118.99
66035;HTU21D;52805;51.074;5.842;2023-05-07T06:51:17;16.93;118.99
66035;HTU21D;52805;51.074;5.842;2023-05-07T06:53:43;17.01;118.99
66035;HTU21D;52805;51.074;5.842;2023-05-07T06:56:10;17.11;118.99
66035;HTU21D;52805;51.074;5.842;2023-05-07T06:58:37;17.17;118.99
66035;HTU21D;52805;51.074;5.842;2023-05-07T07:01:03;17.25;118.99
66035;HTU21D;52805;51.074;5.842;2023-05-07T07:03:30;17.29;118.99
66035;HTU21D;52805;51.074;5.842;2023-05-07T07:05:56;17.33;118.99
66035;HTU21D;52805;51.074;5.842;2023-05-07T07:08:23;17.38;118.99
66035;HTU21D;52805;51.074;5.842;2023-05-07T07:10:49;17.43;118.99
66035;HTU21D;52805;51.074;5.842;2023-05-07T07:13:15;17.48;118.99
66035;HTU21D;52805;51.074;5.842;2023-05-07T07:15:41;17.52;118.99
66035;HTU21D;52805;51.074;5.842;2023-05-07T07:18:06;17.60;118.99
66035;HTU21D;52805;51.074;5.842;2023-05-07T07:20:32;17.66;118.99
66035;HTU21D;52805;51.074;5.842;2023-05-07T07:22:58;17.75;118.99
66035;HTU21D;52805;51.074;5.842;2023-05-07T07:25:25;17.81;118.99
66035;HTU21D;52805;51.074;5.842;2023-05-07T07:27:51;17.85;118.99
66035;HTU21D;52805;51.074;5.842;2023-05-07T07:30:17;17.94;118.99
66035;HTU21D;52805;51.074;5.842;2023-05-07T07:32:46;17.99;118.99
66035;HTU21D;52805;51.074;5.842;2023-05-07T07:35:11;18.08;118.99
66035;HTU21D;52805;51.074;5.842;2023-05-07T07:37:38;18.18;118.99
66035;HTU21D;52805;51.074;5.842;2023-05-07T07:40:04;18.28;118.99
66035;HTU21D;52805;51.074;5.842;2023-05-07T07:42:31;18.38;118.99
66035;HTU21D;52805;51.074;5.842;2023-05-07T07:44:57;18.50;118.99
66035;HTU21D;52805;51.074;5.842;2023-05-07T07:47:25;18.63;118.99
66035;HTU21D;52805;51.074;5.842;2023-05-07T07:49:51;18.77;118.99
66035;HTU21D;52805;51.074;5.842;2023-05-07T07:52:18;18.89;118.99
66035;HTU21D;52805;51.074;5.842;2023-05-07T07:54:44;19.01;118.99
66035;HTU21D;52805;51.074;5.842;2023-05-07T07:57:10;19.11;118.99
66035;HTU21D;52805;51.074;5.842;2023-05-07T07:59:36;19.23;118.99
66035;HTU21D;52805;51.074;5.842;2023-05-07T08:02:03;19.32;118.99
66035;HTU21D;52805;51.074;5.842;2023-05-07T08:04:29;19.40;118.99
66035;HTU21D;52805;51.074;5.842;2023-05-07T08:06:59;19.52;118.99
66035;HTU21D;52805;51.074;5.842;2023-05-07T08:09:25;19.63;118.99
66035;HTU21D;52805;51.074;5.842;2023-05-07T08:11:53;19.80;118.99
66035;HTU21D;52805;51.074;5.842;2023-05-07T08:14:19;19.97;118.99
66035;HTU21D;52805;51.074;5.842;2023-05-07T08:16:46;20.12;118.99
66035;HTU21D;52805;51.074;5.842;2023-05-07T08:19:12;20.22;118.99
66035;HTU21D;52805;51.074;5.842;2023-05-07T08:21:39;20.36;118.99
66035;HTU21D;52805;51.074;5.842;2023-05-07T08:24:06;20.45;118.99
66035;HTU21D;52805;51.074;5.842;2023-05-07T08:26:32;20.54;118.99
66035;HTU21D;52805;51.074;5.842;2023-05-07T08:28:57;20.65;118.99
66035;HTU21D;52805;51.074;5.842;2023-05-07T08:31:23;20.77;118.99
66035;HTU21D;52805;51.074;5.842;2023-05-07T08:33:50;20.85;118.99
66035;HTU21D;52805;51.074;5.842;2023-05-07T08:36:15;20.93;118.99
66035;HTU21D;52805;51.074;5.842;2023-05-07T08:38:41;20.99;118.99
66035;HTU21D;52805;51.074;5.842;2023-05-07T08:41:10;21.06;118.99
66035;HTU21D;52805;51.074;5.842;2023-05-07T08:43:38;21.02;118.99
66035;HTU21D;52805;51.074;5.842;2023-05-07T08:46:09;21.05;118.99
66035;HTU21D;52805;51.074;5.842;2023-05-07T08:48:39;21.08;118.99
66035;HTU21D;52805;51.074;5.842;2023-05-07T08:51:16;21.14;118.99
66035;HTU21D;52805;51.074;5.842;2023-05-07T08:53:43;21.13;118.99
66035;HTU21D;52805;51.074;5.842;2023-05-07T08:56:15;21.18;118.99
66035;HTU21D;52805;51.074;5.842;2023-05-07T08:58:44;21.25;118.99
66035;HTU21D;52805;51.074;5.842;2023-05-07T09:01:15;21.37;118.99
66035;HTU21D;52805;51.074;5.842;2023-05-07T09:03:47;21.48;118.99
66035;HTU21D;52805;51.074;5.842;2023-05-07T09:06:15;21.53;118.99
66035;HTU21D;52805;51.074;5.842;2023-05-07T09:08:54;21.63;118.99
66035;HTU21D;52805;51.074;5.842;2023-05-07T09:11:23;21.75;118.99
66035;HTU21D;52805;51.074;5.842;2023-05-07T09:13:54;21.82;118.99
66035;HTU21D;52805;51.074;5.842;2023-05-07T09:16:22;21.87;118.99
66035;HTU21D;52805;51.074;5.842;2023-05-07T09:18:51;21.93;118.99
66035;HTU21D;52805;51.074;5.842;2023-05-07T09:21:18;21.97;118.99
66035;HTU21D;52805;51.074;5.842;2023-05-07T09:23:51;22.01;118.99
66035;HTU21D;52805;51.074;5.842;2023-05-07T09:26:21;22.08;118.99
66035;HTU21D;52805;51.074;5.842;2023-05-07T09:28:48;22.11;118.99
66035;HTU21D;52805;51.074;5.842;2023-05-07T09:31:14;22.13;118.99
66035;HTU21D;52805;51.074;5.842;2023-05-07T09:33:40;22.17;118.99
66035;HTU21D;52805;51.074;5.842;2023-05-07T09:36:09;22.19;118.99
66035;HTU21D;52805;51.074;5.842;2023-05-07T09:38:38;22.23;118.99
66035;HTU21D;52805;51.074;5.842;2023-05-07T09:41:12;22.29;118.99
66035;HTU21D;52805;51.074;5.842;2023-05-07T09:43:53;22.43;118.99
66035;HTU21D;52805;51.074;5.842;2023-05-07T09:46:27;22.54;118.99
66035;HTU21D;52805;51.074;5.842;2023-05-07T09:48:57;22.63;118.99
66035;HTU21D;52805;51.074;5.842;2023-05-07T09:54:04;22.84;118.99
66035;HTU21D;52805;51.074;5.842;2023-05-07T09:56:35;22.93;118.99
66035;HTU21D;52805;51.074;5.842;2023-05-07T09:59:06;23.03;118.99
66035;HTU21D;52805;51.074;5.842;2023-05-07T10:01:36;23.07;118.99
66035;HTU21D;52805;51.074;5.842;2023-05-07T10:04:02;23.14;118.99
66035;HTU21D;52805;51.074;5.842;2023-05-07T10:06:30;23.13;118.99
66035;HTU21D;52805;51.074;5.842;2023-05-07T10:08:56;23.12;118.99
66035;HTU21D;52805;51.074;5.842;2023-05-07T10:11:23;23.21;118.99
66035;HTU21D;52805;51.074;5.842;2023-05-07T10:13:49;23.31;118.99
66035;HTU21D;52805;51.074;5.842;2023-05-07T10:16:18;23.47;118.99
66035;HTU21D;52805;51.074;5.842;2023-05-07T10:18:47;23.60;118.99
66035;HTU21D;52805;51.074;5.842;2023-05-07T10:21:20;23.75;118.99
66035;HTU21D;52805;51.074;5.842;2023-05-07T10:23:51;23.80;118.99
66035;HTU21D;52805;51.074;5.842;2023-05-07T10:26:21;23.82;118.99
66035;HTU21D;52805;51.074;5.842;2023-05-07T10:28:56;23.85;118.99
66035;HTU21D;52805;51.074;5.842;2023-05-07T10:34:42;23.88;118.99
66035;HTU21D;52805;51.074;5.842;2023-05-07T10:37:10;23.85;118.99
66035;HTU21D;52805;51.074;5.842;2023-05-07T10:39:37;23.80;118.99
66035;HTU21D;52805;51.074;5.842;2023-05-07T10:42:10;23.82;118.99
66035;HTU21D;52805;51.074;5.842;2023-05-07T10:44:39;23.84;118.99
66035;HTU21D;52805;51.074;5.842;2023-05-07T10:47:11;23.90;118.99
66035;HTU21D;52805;51.074;5.842;2023-05-07T10:52:23;23.99;118.99
66035;HTU21D;52805;51.074;5.842;2023-05-07T10:58:25;23.87;118.99
66035;HTU21D;52805;51.074;5.842;2023-05-07T11:01:04;23.81;118.99
66035;HTU21D;52805;51.074;5.842;2023-05-07T11:15:10;23.62;118.99
66035;HTU21D;52805;51.074;5.842;2023-05-07T11:17:58;23.57;118.99
66035;HTU21D;52805;51.074;5.842;2023-05-07T11:20:53;23.52;118.99
66035;HTU21D;52805;51.074;5.842;2023-05-07T11:26:22;23.46;118.99
66035;HTU21D;52805;51.074;5.842;2023-05-07T11:28:48;23.40;118.99
66035;HTU21D;52805;51.074;5.842;2023-05-07T11:31:21;23.35;118.99
66035;HTU21D;52805;51.074;5.842;2023-05-07T11:33:48;23.25;118.99
66035;HTU21D;52805;51.074;5.842;2023-05-07T11:36:18;23.14;118.99
66035;HTU21D;52805;51.074;5.842;2023-05-07T11:38:47;23.05;118.99
66035;HTU21D;52805;51.074;5.842;2023-05-07T11:41:13;22.97;118.99
66035;HTU21D;52805;51.074;5.842;2023-05-07T11:43:53;22.88;118.99
66035;HTU21D;52805;51.074;5.842;2023-05-07T11:46:20;22.79;118.99
66035;HTU21D;52805;51.074;5.842;2023-05-07T11:48:46;22.70;118.99
66035;HTU21D;52805;51.074;5.842;2023-05-07T11:51:19;22.53;118.99
66035;HTU21D;52805;51.074;5.842;2023-05-07T11:53:45;22.33;118.99
66035;HTU21D;52805;51.074;5.842;2023-05-07T11:56:16;22.07;118.99
66035;HTU21D;52805;51.074;5.842;2023-05-07T11:58:43;21.81;118.99
66035;HTU21D;52805;51.074;5.842;2023-05-07T12:01:11;21.54;118.99
66035;HTU21D;52805;51.074;5.842;2023-05-07T12:03:40;21.29;118.99
66035;HTU21D;52805;51.074;5.842;2023-05-07T12:06:10;21.04;118.99
66035;HTU21D;52805;51.074;5.842;2023-05-07T12:08:38;20.90;118.99
66035;HTU21D;52805;51.074;5.842;2023-05-07T12:11:07;20.78;118.99
66035;HTU21D;52805;51.074;5.842;2023-05-07T12:13:34;20.69;118.99
66035;HTU21D;52805;51.074;5.842;2023-05-07T12:16:00;20.59;118.99
66035;HTU21D;52805;51.074;5.842;2023-05-07T12:18:29;20.53;118.99
66035;HTU21D;52805;51.074;5.842;2023-05-07T12:20:57;20.49;118.99
66035;HTU21D;52805;51.074;5.842;2023-05-07T12:23:24;20.48;118.99
66035;HTU21D;52805;51.074;5.842;2023-05-07T12:25:50;20.48;118.99
66035;HTU21D;52805;51.074;5.842;2023-05-07T12:28:17;20.50;118.99
66035;HTU21D;52805;51.074;5.842;2023-05-07T12:30:47;20.53;118.99
66035;HTU21D;52805;51.074;5.842;2023-05-07T12:33:25;20.56;118.99
66035;HTU21D;52805;51.074;5.842;2023-05-07T12:35:55;20.60;118.99
66035;HTU21D;52805;51.074;5.842;2023-05-07T12:38:22;20.66;118.99
66035;HTU21D;52805;51.074;5.842;2023-05-07T12:40:54;20.71;118.99
66035;HTU21D;52805;51.074;5.842;2023-05-07T12:43:28;20.77;118.99
66035;HTU21D;52805;51.074;5.842;2023-05-07T12:45:56;20.81;118.99
66035;HTU21D;52805;51.074;5.842;2023-05-07T12:48:23;20.85;118.99
66035;HTU21D;52805;51.074;5.842;2023-05-07T12:51:00;20.92;118.99
66035;HTU21D;52805;51.074;5.842;2023-05-07T12:53:28;21.04;118.99
66035;HTU21D;52805;51.074;5.842;2023-05-07T12:55:56;21.15;118.99
66035;HTU21D;52805;51.074;5.842;2023-05-07T12:58:29;21.24;118.99
66035;HTU21D;52805;51.074;5.842;2023-05-07T13:00:57;21.39;118.99
66035;HTU21D;52805;51.074;5.842;2023-05-07T13:03:29;21.53;118.99
66035;HTU21D;52805;51.074;5.842;2023-05-07T13:06:13;21.69;118.99
66035;HTU21D;52805;51.074;5.842;2023-05-07T13:08:41;21.79;118.99
66035;HTU21D;52805;51.074;5.842;2023-05-07T13:11:11;21.89;118.99
66035;HTU21D;52805;51.074;5.842;2023-05-07T13:13:39;21.98;118.99
66035;HTU21D;52805;51.074;5.842;2023-05-07T13:16:07;22.06;118.99
66035;HTU21D;52805;51.074;5.842;2023-05-07T13:18:34;22.08;118.99
66035;HTU21D;52805;51.074;5.842;2023-05-07T13:21:00;22.12;118.99
66035;HTU21D;52805;51.074;5.842;2023-05-07T13:23:27;22.16;118.99
66035;HTU21D;52805;51.074;5.842;2023-05-07T13:25:53;22.20;118.99
66035;HTU21D;52805;51.074;5.842;2023-05-07T13:28:26;22.25;118.99
66035;HTU21D;52805;51.074;5.842;2023-05-07T13:30:52;22.32;118.99
66035;HTU21D;52805;51.074;5.842;2023-05-07T13:33:18;22.34;118.99
66035;HTU21D;52805;51.074;5.842;2023-05-07T13:35:44;22.40;118.99
66035;HTU21D;52805;51.074;5.842;2023-05-07T13:38:10;22.41;118.99
66035;HTU21D;52805;51.074;5.842;2023-05-07T13:40:36;22.42;118.99
66035;HTU21D;52805;51.074;5.842;2023-05-07T13:43:01;22.46;118.99
66035;HTU21D;52805;51.074;5.842;2023-05-07T13:45:30;22.51;118.99
66035;HTU21D;52805;51.074;5.842;2023-05-07T13:47:57;22.50;118.99
66035;HTU21D;52805;51.074;5.842;2023-05-07T13:50:23;22.51;118.99
66035;HTU21D;52805;51.074;5.842;2023-05-07T13:52:49;22.55;118.99
66035;HTU21D;52805;51.074;5.842;2023-05-07T13:55:22;22.63;118.99
66035;HTU21D;52805;51.074;5.842;2023-05-07T13:57:55;22.70;118.99
66035;HTU21D;52805;51.074;5.842;2023-05-07T14:00:22;22.73;118.99
66035;HTU21D;52805;51.074;5.842;2023-05-07T14:02:48;22.77;118.99
66035;HTU21D;52805;51.074;5.842;2023-05-07T14:05:14;22.83;118.99
66035;HTU21D;52805;51.074;5.842;2023-05-07T14:07:39;22.85;118.99
66035;HTU21D;52805;51.074;5.842;2023-05-07T14:10:05;22.84;118.99
66035;HTU21D;52805;51.074;5.842;2023-05-07T14:12:32;22.78;118.99
66035;HTU21D;52805;51.074;5.842;2023-05-07T14:14:58;22.78;118.99
66035;HTU21D;52805;51.074;5.842;2023-05-07T14:17:23;22.80;118.99
66035;HTU21D;52805;51.074;5.842;2023-05-07T14:19:52;22.78;118.99
66035;HTU21D;52805;51.074;5.842;2023-05-07T14:22:22;22.73;118.99
66035;HTU21D;52805;51.074;5.842;2023-05-07T14:24:49;22.75;118.99
66035;HTU21D;52805;51.074;5.842;2023-05-07T14:27:15;22.71;118.99
66035;HTU21D;52805;51.074;5.842;2023-05-07T14:29:41;22.73;118.99
66035;HTU21D;52805;51.074;5.842;2023-05-07T14:32:08;22.66;118.99
66035;HTU21D;52805;51.074;5.842;2023-05-07T14:34:33;22.66;118.99
66035;HTU21D;52805;51.074;5.842;2023-05-07T14:37:00;22.68;118.99
66035;HTU21D;52805;51.074;5.842;2023-05-07T14:39:27;22.67;118.99
66035;HTU21D;52805;51.074;5.842;2023-05-07T14:41:52;22.60;118.99
66035;HTU21D;52805;51.074;5.842;2023-05-07T14:44:20;22.50;118.99
66035;HTU21D;52805;51.074;5.842;2023-05-07T14:46:46;22.51;118.99
66035;HTU21D;52805;51.074;5.842;2023-05-07T14:49:13;22.44;118.99
66035;HTU21D;52805;51.074;5.842;2023-05-07T14:51:46;22.42;118.99
66035;HTU21D;52805;51.074;5.842;2023-05-07T14:54:13;22.46;118.99
66035;HTU21D;52805;51.074;5.842;2023-05-07T14:56:40;22.46;118.99
66035;HTU21D;52805;51.074;5.842;2023-05-07T14:59:06;22.47;118.99
66035;HTU21D;52805;51.074;5.842;2023-05-07T15:01:34;22.51;118.99
66035;HTU21D;52805;51.074;5.842;2023-05-07T15:04:01;22.56;118.99
66035;HTU21D;52805;51.074;5.842;2023-05-07T15:06:26;22.61;118.99
66035;HTU21D;52805;51.074;5.842;2023-05-07T15:08:52;22.61;118.99
66035;HTU21D;52805;51.074;5.842;2023-05-07T15:11:18;22.68;118.99
66035;HTU21D;52805;51.074;5.842;2023-05-07T15:13:43;22.72;118.99
66035;HTU21D;52805;51.074;5.842;2023-05-07T15:16:09;22.72;118.99
66035;HTU21D;52805;51.074;5.842;2023-05-07T15:18:35;22.72;118.99
66035;HTU21D;52805;51.074;5.842;2023-05-07T15:21:01;22.66;118.99
66035;HTU21D;52805;51.074;5.842;2023-05-07T15:23:27;22.61;118.99
66035;HTU21D;52805;51.074;5.842;2023-05-07T15:25:53;22.57;118.99
66035;HTU21D;52805;51.074;5.842;2023-05-07T15:28:19;22.51;118.99
66035;HTU21D;52805;51.074;5.842;2023-05-07T15:30:45;22.56;118.99
66035;HTU21D;52805;51.074;5.842;2023-05-07T15:33:10;22.62;118.99